createdAt,value
2018-07-26T00:02:08.843Z,3.50
2018-07-26T00:04:37.630Z,3.10
2018-07-26T00:07:05.992Z,3.33
2018-07-26T00:09:34.195Z,3.27
2018-07-26T00:12:02.400Z,3.30
2018-07-26T00:14:31.251Z,3.20
2018-07-26T00:16:59.794Z,3.10
2018-07-26T00:19:28.010Z,3.42
2018-07-26T00:21:56.202Z,3.17
2018-07-26T00:24:24.665Z,3.85
2018-07-26T00:26:53.659Z,4.10
2018-07-26T00:29:22.273Z,4.53
2018-07-26T00:31:50.474Z,4.33
2018-07-26T00:34:19.347Z,4.72
2018-07-26T00:36:48.255Z,4.12
2018-07-26T00:39:16.476Z,3.80
2018-07-26T00:41:44.678Z,4.25
2018-07-26T00:44:13.136Z,4.08
2018-07-26T00:46:41.332Z,4.03
2018-07-26T00:49:09.534Z,3.70
2018-07-26T00:51:38.445Z,4.33
2018-07-26T00:54:06.957Z,4.15
2018-07-26T00:56:35.156Z,4.30
2018-07-26T00:59:03.360Z,4.25
2018-07-26T01:01:31.580Z,4.33
2018-07-26T01:03:59.769Z,4.47
2018-07-26T01:06:28.021Z,4.58
2018-07-26T01:08:56.231Z,4.60
2018-07-26T01:11:24.996Z,4.33
2018-07-26T01:13:53.621Z,4.40
2018-07-26T01:16:22.367Z,4.30
2018-07-26T01:18:50.586Z,4.58
2018-07-26T01:21:18.770Z,4.45
2018-07-26T01:23:47.990Z,4.37
2018-07-26T01:26:17.217Z,4.35
2018-07-26T01:28:45.412Z,3.90
2018-07-26T01:31:13.613Z,4.22
2018-07-26T01:33:42.249Z,4.97
2018-07-26T01:36:10.451Z,4.78
2018-07-26T01:38:38.967Z,4.58
2018-07-26T01:41:07.198Z,4.30
2018-07-26T01:43:49.808Z,4.40
2018-07-26T01:46:19.234Z,4.62
2018-07-26T01:48:47.515Z,4.60
2018-07-26T01:51:16.035Z,4.67
2018-07-26T01:53:45.020Z,4.28
2018-07-26T01:56:13.270Z,4.97
2018-07-26T01:58:41.543Z,4.83
2018-07-26T02:01:11.338Z,4.92
2018-07-26T02:03:39.987Z,4.15
2018-07-26T02:06:08.367Z,4.50
2018-07-26T02:08:36.600Z,4.37
2018-07-26T02:11:04.954Z,4.67
2018-07-26T02:13:33.660Z,4.85
2018-07-26T02:16:06.608Z,5.22
2018-07-26T02:18:34.794Z,4.75
2018-07-26T02:21:03.713Z,4.40
2018-07-26T02:23:31.918Z,4.50
2018-07-26T02:26:00.138Z,4.35
2018-07-26T02:28:28.886Z,4.40
2018-07-26T02:30:57.101Z,4.97
2018-07-26T02:33:25.938Z,4.62
2018-07-26T02:35:54.396Z,5.05
2018-07-26T02:38:22.598Z,4.62
2018-07-26T02:40:50.808Z,4.80
2018-07-26T02:43:19.454Z,4.40
2018-07-26T02:45:47.695Z,4.60
2018-07-26T02:48:15.941Z,4.67
2018-07-26T02:50:44.695Z,4.95
2018-07-26T02:53:14.138Z,4.40
2018-07-26T02:55:42.786Z,4.45
2018-07-26T02:58:11.000Z,4.65
2018-07-26T03:00:39.225Z,4.85
2018-07-26T03:03:07.423Z,4.50
2018-07-26T03:05:35.613Z,4.45
2018-07-26T03:08:04.148Z,4.83
2018-07-26T03:10:32.342Z,4.40
2018-07-26T03:13:00.938Z,4.60
2018-07-26T03:15:29.650Z,4.97
2018-07-26T03:17:58.439Z,4.90
2018-07-26T03:20:26.638Z,4.72
2018-07-26T03:22:54.846Z,4.20
2018-07-26T03:25:23.498Z,4.60
2018-07-26T03:27:51.752Z,5.40
2018-07-26T03:30:19.963Z,4.83
2018-07-26T03:32:48.582Z,4.83
2018-07-26T03:35:17.473Z,5.00
2018-07-26T03:37:45.658Z,4.80
2018-07-26T03:40:13.882Z,4.60
2018-07-26T03:42:42.258Z,4.65
2018-07-26T03:45:10.469Z,4.58
2018-07-26T03:47:38.824Z,4.72
2018-07-26T03:50:07.060Z,5.00
2018-07-26T03:52:35.910Z,4.55
2018-07-26T03:55:04.066Z,4.65
2018-07-26T03:57:32.861Z,4.78
2018-07-26T04:00:01.077Z,4.40
2018-07-26T04:02:29.286Z,4.75
2018-07-26T04:04:57.495Z,4.60
2018-07-26T04:07:25.684Z,4.70
2018-07-26T04:09:54.379Z,4.70
2018-07-26T04:12:22.962Z,4.28
2018-07-26T04:14:51.531Z,5.08
2018-07-26T04:17:20.054Z,5.33
2018-07-26T04:19:48.243Z,5.12
2018-07-26T04:22:16.464Z,4.75
2018-07-26T04:24:44.714Z,5.10
2018-07-26T04:27:12.932Z,4.75
2018-07-26T04:29:41.401Z,4.72
2018-07-26T04:32:10.290Z,4.95
2018-07-26T04:34:38.454Z,4.90
2018-07-26T04:37:06.699Z,4.60
2018-07-26T04:39:35.354Z,4.87
2018-07-26T04:42:03.576Z,4.78
2018-07-26T04:44:31.762Z,5.10
2018-07-26T04:47:00.162Z,4.50
2018-07-26T04:49:28.388Z,5.08
2018-07-26T04:51:57.003Z,5.42
2018-07-26T04:54:25.908Z,4.87
2018-07-26T04:56:54.124Z,5.03
2018-07-26T04:59:22.310Z,4.83
2018-07-26T05:01:50.801Z,4.97
2018-07-26T05:04:19.000Z,4.78
2018-07-26T05:06:47.218Z,4.70
2018-07-26T05:09:15.586Z,4.85
2018-07-26T05:11:43.844Z,5.03
2018-07-26T05:14:12.283Z,5.03
2018-07-26T05:16:40.659Z,4.67
2018-07-26T05:19:08.949Z,4.72
2018-07-26T05:21:37.165Z,4.30
2018-07-26T05:24:08.851Z,4.80
2018-07-26T05:26:37.515Z,4.60
2018-07-26T05:29:06.399Z,4.50
2018-07-26T05:31:34.602Z,4.05
2018-07-26T05:34:03.119Z,3.95
2018-07-26T05:36:31.318Z,4.28
2018-07-26T05:39:00.198Z,4.47
2018-07-26T05:41:28.523Z,4.15
2018-07-26T05:43:56.719Z,4.28
2018-07-26T05:46:25.105Z,4.60
2018-07-26T05:48:53.308Z,3.83
2018-07-26T05:51:22.058Z,4.20
2018-07-26T05:53:50.727Z,4.12
2018-07-26T05:56:18.915Z,4.08
2018-07-26T05:58:47.231Z,4.45
2018-07-26T06:01:15.474Z,3.70
2018-07-26T06:03:43.722Z,4.20
2018-07-26T06:06:12.622Z,4.00
2018-07-26T06:08:41.323Z,3.77
2018-07-26T06:11:09.499Z,4.25
2018-07-26T06:13:38.118Z,3.70
2018-07-26T06:16:06.738Z,4.00
2018-07-26T06:18:35.974Z,4.35
2018-07-26T06:21:04.166Z,3.98
2018-07-26T06:23:32.384Z,3.70
2018-07-26T06:26:00.628Z,4.00
2018-07-26T06:28:29.598Z,4.10
2018-07-26T06:30:57.792Z,3.42
2018-07-26T06:33:26.533Z,3.58
2018-07-26T06:35:54.674Z,3.60
2018-07-26T06:38:22.890Z,3.65
2018-07-26T06:40:51.652Z,3.58
2018-07-26T06:43:19.866Z,3.30
2018-07-26T06:45:48.080Z,3.52
2018-07-26T06:48:16.299Z,3.40
2018-07-26T06:50:45.659Z,3.33
2018-07-26T06:53:14.239Z,3.60
2018-07-26T06:55:42.454Z,3.30
2018-07-26T06:58:11.422Z,3.20
2018-07-26T07:00:39.680Z,3.33
2018-07-26T07:03:08.354Z,3.27
2018-07-26T07:05:36.554Z,3.10
2018-07-26T07:08:05.611Z,2.90
2018-07-26T07:10:34.342Z,3.55
2018-07-26T07:13:02.870Z,3.08
2018-07-26T07:15:31.322Z,2.95
2018-07-26T07:18:00.269Z,2.80
2018-07-26T07:20:28.476Z,2.60
2018-07-26T07:22:56.699Z,2.70
2018-07-26T07:25:24.914Z,2.77
2018-07-26T07:27:53.185Z,2.92
2018-07-26T07:30:21.806Z,3.00
2018-07-26T07:32:50.971Z,2.50
2018-07-26T07:35:19.255Z,2.70
2018-07-26T07:37:47.446Z,2.67
2018-07-26T07:40:15.658Z,2.65
2018-07-26T07:42:43.854Z,2.55
2018-07-26T07:45:12.232Z,2.60
2018-07-26T07:47:40.509Z,2.27
2018-07-26T07:50:08.679Z,2.20
2018-07-26T07:52:37.554Z,2.30
2018-07-26T07:55:05.964Z,2.22
2018-07-26T07:57:34.422Z,2.27
2018-07-26T08:00:02.623Z,2.10
2018-07-26T08:02:30.820Z,2.17
2018-07-26T08:04:59.390Z,2.25
2018-07-26T08:07:27.935Z,2.22
2018-07-26T08:09:56.854Z,1.85
2018-07-26T08:12:25.763Z,1.90
2018-07-26T08:14:54.763Z,1.90
2018-07-26T08:17:22.974Z,2.10
2018-07-26T08:19:51.192Z,2.02
2018-07-26T08:22:19.862Z,1.90
2018-07-26T08:24:48.062Z,2.10
2018-07-26T08:27:16.294Z,1.70
2018-07-26T08:29:44.507Z,1.80
2018-07-26T08:32:13.443Z,1.80
2018-07-26T08:34:41.670Z,1.70
2018-07-26T08:37:09.850Z,1.70
2018-07-26T08:39:38.064Z,1.60
2018-07-26T08:42:06.807Z,1.70
2018-07-26T08:44:34.986Z,1.80
2018-07-26T08:47:03.182Z,1.80
2018-07-26T08:49:31.426Z,1.67
2018-07-26T08:54:34.432Z,1.72
2018-07-26T08:57:03.010Z,1.70
2018-07-26T08:59:32.278Z,1.70
2018-07-26T09:02:00.849Z,1.65
2018-07-26T09:04:29.038Z,1.40
2018-07-26T09:06:57.243Z,1.62
2018-07-26T09:09:25.474Z,1.50
2018-07-26T09:11:54.310Z,1.45
2018-07-26T09:14:23.258Z,1.57
2018-07-26T09:16:51.859Z,1.50
2018-07-26T09:19:20.059Z,1.62
2018-07-26T09:21:48.291Z,1.67
2018-07-26T09:24:16.514Z,1.80
2018-07-26T09:26:44.712Z,1.70
2018-07-26T09:29:12.967Z,1.87
2018-07-26T09:31:41.321Z,1.60
2018-07-26T09:34:10.306Z,1.75
2018-07-26T09:36:38.516Z,1.50
2018-07-26T09:39:10.564Z,1.80
2018-07-26T09:41:38.806Z,1.95
2018-07-26T09:44:07.009Z,1.55
2018-07-26T09:46:35.395Z,1.85
2018-07-26T09:49:04.267Z,2.10
2018-07-26T09:51:33.086Z,1.80
2018-07-26T09:54:01.850Z,1.72
2018-07-26T09:56:30.052Z,1.67
2018-07-26T09:58:58.238Z,1.60
2018-07-26T10:04:02.635Z,2.00
2018-07-26T10:06:30.833Z,1.72
2018-07-26T10:08:59.054Z,1.70
2018-07-26T10:11:28.120Z,1.80
2018-07-26T10:13:57.113Z,1.90
2018-07-26T10:16:26.111Z,1.57
2018-07-26T10:18:54.318Z,2.00
2018-07-26T10:21:22.534Z,1.67
2018-07-26T10:23:50.750Z,1.98
2018-07-26T10:26:18.941Z,1.70
2018-07-26T10:28:47.186Z,1.70
2018-07-26T10:31:16.091Z,1.55
2018-07-26T10:33:44.921Z,2.00
2018-07-26T10:36:13.104Z,1.92
2018-07-26T10:38:42.070Z,1.57
2018-07-26T10:41:11.164Z,1.80
2018-07-26T10:43:39.371Z,1.90
2018-07-26T10:46:07.573Z,2.00
2018-07-26T10:48:35.758Z,2.00
2018-07-26T10:51:04.018Z,2.20
2018-07-26T10:53:32.495Z,1.80
2018-07-26T10:56:00.729Z,2.00
2018-07-26T10:58:28.921Z,1.87
2018-07-26T11:00:57.381Z,1.90
2018-07-26T11:03:25.583Z,1.87
2018-07-26T11:05:53.774Z,1.90
2018-07-26T11:08:21.984Z,1.82
2018-07-26T11:10:50.182Z,1.70
2018-07-26T11:13:19.115Z,2.00
2018-07-26T11:15:47.774Z,1.67
2018-07-26T11:18:15.954Z,1.75
2018-07-26T11:20:44.146Z,1.60
2018-07-26T11:23:12.380Z,1.75
2018-07-26T11:25:41.144Z,2.30
2018-07-26T11:28:09.310Z,1.62
2018-07-26T11:30:37.858Z,1.60
2018-07-26T11:33:06.748Z,1.52
2018-07-26T11:35:34.934Z,1.72
2018-07-26T11:38:03.130Z,1.65
2018-07-26T11:40:31.795Z,1.47
2018-07-26T11:42:59.970Z,1.60
2018-07-26T11:45:28.145Z,1.82
2018-07-26T11:47:56.336Z,1.52
2018-07-26T11:50:24.525Z,1.52
2018-07-26T11:52:53.386Z,1.60
2018-07-26T11:55:21.542Z,1.60
2018-07-26T11:57:49.986Z,1.90
2018-07-26T12:00:18.198Z,1.80
2018-07-26T12:02:46.404Z,1.87
2018-07-26T12:05:14.600Z,2.05
2018-07-26T12:07:42.870Z,2.15
2018-07-26T12:10:11.131Z,2.20
2018-07-26T12:12:39.902Z,2.20
2018-07-26T12:15:08.814Z,2.10
2018-07-26T12:17:37.073Z,2.40
2018-07-26T12:20:06.027Z,2.10
2018-07-26T12:22:34.742Z,1.85
2018-07-26T12:25:02.947Z,1.92
2018-07-26T12:27:31.164Z,1.77
2018-07-26T12:29:59.722Z,1.70
2018-07-26T12:32:28.373Z,1.70
2018-07-26T12:34:56.563Z,1.62
2018-07-26T12:37:24.765Z,1.40
2018-07-26T12:39:52.978Z,1.80
2018-07-26T12:42:21.184Z,1.98
2018-07-26T12:44:49.450Z,1.80
2018-07-26T12:47:17.656Z,2.05
2018-07-26T12:49:46.321Z,1.90
2018-07-26T12:52:17.260Z,2.00
2018-07-26T12:54:45.468Z,1.62
2018-07-26T12:57:13.657Z,2.00
2018-07-26T12:59:41.873Z,1.67
2018-07-26T13:02:10.145Z,1.70
2018-07-26T13:04:38.436Z,2.00
2018-07-26T13:07:07.168Z,2.20
2018-07-26T13:09:36.145Z,2.40
2018-07-26T13:12:04.364Z,2.52
2018-07-26T13:14:32.826Z,2.58
2018-07-26T13:17:01.483Z,2.70
2018-07-26T13:19:29.663Z,2.45
2018-07-26T13:21:57.879Z,2.55
2018-07-26T13:24:26.092Z,2.70
2018-07-26T13:26:54.270Z,3.02
2018-07-26T13:29:22.702Z,2.80
2018-07-26T13:31:50.919Z,3.10
2018-07-26T13:34:19.606Z,3.33
2018-07-26T13:36:47.746Z,3.40
2018-07-26T13:39:15.973Z,2.95
2018-07-26T13:41:44.322Z,3.20
2018-07-26T13:44:12.942Z,3.00
2018-07-26T13:46:41.151Z,3.42
2018-07-26T13:49:09.359Z,3.00
2018-07-26T13:51:37.582Z,3.40
2018-07-26T13:54:06.358Z,3.22
2018-07-26T13:56:34.566Z,3.22
2018-07-26T13:59:02.782Z,3.30
2018-07-26T14:01:31.473Z,3.47
2018-07-26T14:03:59.701Z,3.22
2018-07-26T14:06:27.862Z,3.10
2018-07-26T14:08:56.199Z,3.80
2018-07-26T14:11:24.987Z,3.60
2018-07-26T14:13:53.482Z,2.85
2018-07-26T14:16:21.924Z,3.20
2018-07-26T14:18:50.139Z,3.08
2018-07-26T14:21:18.355Z,3.17
2018-07-26T14:23:46.686Z,2.77
2018-07-26T14:26:14.897Z,3.35
2018-07-26T14:28:43.154Z,3.47
2018-07-26T14:31:11.806Z,3.67
2018-07-26T14:33:40.546Z,3.50
2018-07-26T14:36:08.752Z,3.12
2018-07-26T14:38:36.961Z,3.35
2018-07-26T14:41:05.191Z,3.00
2018-07-26T14:43:33.479Z,3.37
2018-07-26T14:46:01.682Z,3.20
2018-07-26T14:48:30.152Z,3.30
2018-07-26T14:53:32.187Z,3.20
2018-07-26T14:56:00.384Z,3.50
2018-07-26T14:58:28.599Z,3.30
2018-07-26T15:00:57.565Z,3.30
2018-07-26T15:03:25.702Z,3.30
2018-07-26T15:05:54.212Z,3.17
2018-07-26T15:08:22.398Z,3.37
2018-07-26T15:10:50.590Z,3.10
2018-07-26T15:13:19.298Z,3.00
2018-07-26T15:15:48.214Z,3.20
2018-07-26T15:18:16.415Z,3.17
2018-07-26T15:20:44.608Z,3.40
2018-07-26T15:23:12.832Z,3.10
2018-07-26T15:25:41.838Z,2.80
2018-07-26T15:28:10.463Z,3.00
2018-07-26T15:30:38.687Z,3.15
2018-07-26T15:33:07.287Z,2.92
2018-07-26T15:35:35.485Z,2.77
2018-07-26T15:38:03.688Z,3.02
2018-07-26T15:40:32.295Z,2.95
2018-07-26T15:43:00.500Z,2.83
2018-07-26T15:45:28.694Z,2.80
2018-07-26T15:47:56.891Z,2.62
2018-07-26T15:50:25.077Z,3.17
2018-07-26T15:52:53.490Z,2.80
2018-07-26T15:55:21.678Z,2.98
2018-07-26T15:57:49.879Z,3.20
2018-07-26T16:00:18.321Z,3.42
2018-07-26T16:02:46.522Z,3.22
2018-07-26T16:05:14.740Z,3.15
2018-07-26T16:07:43.238Z,3.30
2018-07-26T16:10:11.441Z,3.40
2018-07-26T16:12:40.036Z,3.08
2018-07-26T16:15:10.149Z,3.55
2018-07-26T16:17:38.414Z,3.30
2018-07-26T16:20:07.764Z,3.17
2018-07-26T16:22:36.206Z,3.30
2018-07-26T16:25:06.326Z,3.05
2018-07-26T16:27:34.546Z,3.40
2018-07-26T16:30:09.788Z,3.27
2018-07-26T16:32:38.770Z,4.25
2018-07-26T16:35:07.611Z,3.17
2018-07-26T16:37:35.887Z,3.17
2018-07-26T16:40:04.747Z,3.02
2018-07-26T16:42:33.434Z,2.98
2018-07-26T16:45:01.697Z,3.17
2018-07-26T16:47:29.970Z,3.15
2018-07-26T16:49:58.280Z,3.80
2018-07-26T16:52:26.978Z,3.50
2018-07-26T16:54:55.175Z,3.20
2018-07-26T16:57:23.364Z,3.17
2018-07-26T16:59:51.954Z,3.20
2018-07-26T17:02:20.156Z,3.65
2018-07-26T17:04:48.386Z,3.40
2018-07-26T17:07:16.595Z,3.50
2018-07-26T17:09:44.880Z,3.20
2018-07-26T17:12:13.130Z,3.67
2018-07-26T17:14:47.977Z,3.22
2018-07-26T17:17:16.176Z,3.12
2018-07-26T17:19:44.735Z,3.33
2018-07-26T17:22:13.319Z,3.95
2018-07-26T17:24:41.553Z,3.37
2018-07-26T17:27:09.771Z,3.42
2018-07-26T17:29:38.027Z,3.12
2018-07-26T17:32:09.079Z,3.10
2018-07-26T17:34:37.679Z,3.12
2018-07-26T17:37:06.327Z,3.42
2018-07-26T17:39:34.940Z,3.37
2018-07-26T17:42:03.125Z,3.60
2018-07-26T17:44:31.355Z,3.27
2018-07-26T17:46:59.615Z,3.25
2018-07-26T17:49:27.830Z,3.33
2018-07-26T17:51:56.107Z,3.60
2018-07-26T17:54:24.824Z,3.72
2018-07-26T17:56:53.127Z,3.40
2018-07-26T17:59:21.311Z,3.55
2018-07-26T18:01:49.689Z,3.70
2018-07-26T18:04:17.901Z,3.60
2018-07-26T18:06:46.108Z,3.27
2018-07-26T18:09:14.331Z,3.35
2018-07-26T18:11:42.875Z,3.45
2018-07-26T18:14:11.671Z,3.40
2018-07-26T18:16:40.241Z,3.22
2018-07-26T18:19:08.846Z,3.17
2018-07-26T18:21:37.085Z,3.45
2018-07-26T18:24:05.605Z,3.77
2018-07-26T18:26:33.980Z,3.02
2018-07-26T18:29:02.189Z,3.50
2018-07-26T18:31:30.541Z,3.45
2018-07-26T18:33:59.227Z,3.67
2018-07-26T18:36:27.584Z,3.47
2018-07-26T18:38:55.779Z,4.12
2018-07-26T18:41:24.360Z,3.80
2018-07-26T18:43:52.915Z,4.45
2018-07-26T18:46:21.119Z,3.85
2018-07-26T18:48:49.334Z,3.52
2018-07-26T18:51:17.713Z,3.85
2018-07-26T18:53:46.163Z,3.75
2018-07-26T18:56:14.402Z,4.12
2018-07-26T18:58:42.597Z,4.25
2018-07-26T19:03:44.255Z,3.80
2018-07-26T19:06:12.495Z,3.80
2018-07-26T19:08:41.083Z,4.10
2018-07-26T19:11:09.297Z,3.83
2018-07-26T19:13:37.781Z,3.87
2018-07-26T19:16:06.980Z,3.95
2018-07-26T19:18:35.196Z,3.87
2018-07-26T19:21:03.416Z,4.37
2018-07-26T19:23:32.128Z,4.20
2018-07-26T19:26:00.387Z,4.35
2018-07-26T19:28:28.545Z,4.60
2018-07-26T19:30:56.780Z,4.75
2018-07-26T19:33:25.363Z,4.80
2018-07-26T19:35:53.574Z,4.95
2018-07-26T19:38:21.782Z,5.17
2018-07-26T19:40:50.007Z,4.35
2018-07-26T19:43:18.225Z,4.45
2018-07-26T19:45:47.078Z,4.67
2018-07-26T19:48:15.582Z,4.37
2018-07-26T19:50:43.788Z,3.95
2018-07-26T19:53:12.746Z,4.62
2018-07-26T19:55:40.971Z,4.20
2018-07-26T19:58:09.199Z,4.50
2018-07-26T20:00:37.716Z,4.58
2018-07-26T20:03:06.338Z,4.70
2018-07-26T20:05:34.839Z,4.58
2018-07-26T20:08:03.055Z,4.17
2018-07-26T20:10:31.273Z,4.75
2018-07-26T20:12:59.911Z,4.55
2018-07-26T20:15:28.395Z,4.50
2018-07-26T20:17:56.609Z,4.50
2018-07-26T20:20:24.800Z,4.10
2018-07-26T20:22:53.238Z,4.10
2018-07-26T20:25:21.445Z,4.33
2018-07-26T20:27:49.659Z,4.45
2018-07-26T20:30:17.913Z,4.50
2018-07-26T20:32:46.341Z,4.30
2018-07-26T20:35:14.945Z,4.05
2018-07-26T20:37:43.570Z,4.40
2018-07-26T20:40:12.148Z,4.20
2018-07-26T20:42:41.127Z,4.40
2018-07-26T20:45:10.878Z,4.33
2018-07-26T20:47:39.204Z,6.10
2018-07-26T20:50:08.219Z,4.35
2018-07-26T20:52:37.411Z,3.83
2018-07-26T20:55:05.859Z,3.98
2018-07-26T20:57:34.177Z,3.65
2018-07-26T21:00:02.881Z,3.80
2018-07-26T21:02:31.496Z,3.40
2018-07-26T21:04:59.711Z,3.70
2018-07-26T21:07:27.900Z,5.70
2018-07-26T21:09:56.595Z,4.50
2018-07-26T21:12:25.278Z,3.90
2018-07-26T21:14:53.487Z,3.22
2018-07-26T21:17:21.715Z,3.60
2018-07-26T21:19:49.955Z,3.35
2018-07-26T21:22:18.212Z,4.05
2018-07-26T21:24:46.432Z,3.98
2018-07-26T21:27:14.715Z,3.33
2018-07-26T21:29:43.074Z,2.90
2018-07-26T21:32:11.843Z,3.10
2018-07-26T21:34:40.107Z,3.50
2018-07-26T21:37:08.827Z,3.50
2018-07-26T21:39:37.047Z,3.25
2018-07-26T21:42:05.271Z,3.30
2018-07-26T21:44:33.776Z,3.20
2018-07-26T21:47:02.004Z,3.62
2018-07-26T21:49:30.203Z,3.45
2018-07-26T21:51:58.874Z,3.35
2018-07-26T21:54:27.455Z,3.80
2018-07-26T21:56:55.686Z,3.15
2018-07-26T22:04:44.538Z,3.67
2018-07-26T22:07:12.782Z,3.12
2018-07-26T22:09:41.037Z,3.42
2018-07-26T22:12:09.070Z,3.42
2018-07-26T22:14:37.498Z,3.25
2018-07-26T22:17:06.231Z,3.70
2018-07-26T22:19:34.558Z,5.33
2018-07-26T22:22:02.871Z,3.83
2018-07-26T22:24:31.046Z,4.00
2018-07-26T22:26:59.254Z,3.80
2018-07-26T22:29:28.023Z,3.90
2018-07-26T22:31:56.223Z,3.67
2018-07-26T22:34:24.871Z,3.92
2018-07-26T22:36:53.100Z,3.60
2018-07-26T22:39:21.323Z,3.67
2018-07-26T22:41:49.558Z,3.40
2018-07-26T22:44:18.351Z,3.58
2018-07-26T22:46:46.598Z,3.47
2018-07-26T22:49:15.199Z,3.30
2018-07-26T22:51:43.779Z,3.10
2018-07-26T22:54:12.286Z,3.05
2018-07-26T22:56:40.727Z,3.30
2018-07-26T22:59:08.935Z,3.50
2018-07-26T23:01:37.163Z,3.30
2018-07-26T23:04:06.851Z,3.62
2018-07-26T23:06:35.063Z,3.83
2018-07-26T23:09:03.574Z,3.30
2018-07-26T23:11:31.794Z,3.55
2018-07-26T23:14:00.594Z,3.05
2018-07-26T23:16:29.587Z,3.27
2018-07-26T23:18:57.845Z,3.62
2018-07-26T23:21:26.059Z,3.20
2018-07-26T23:23:54.329Z,3.37
2018-07-26T23:26:22.584Z,3.58
2018-07-26T23:28:51.275Z,3.60
2018-07-26T23:31:19.478Z,3.60
2018-07-26T23:33:47.890Z,3.67
2018-07-26T23:36:16.096Z,3.60
2018-07-26T23:38:44.809Z,3.22
2018-07-26T23:41:13.059Z,3.37
2018-07-26T23:43:41.694Z,3.25
2018-07-26T23:46:10.401Z,3.47
2018-07-26T23:48:38.616Z,3.35
2018-07-26T23:51:07.484Z,3.42
2018-07-26T23:53:36.207Z,3.52
2018-07-26T23:56:04.718Z,3.60
2018-07-26T23:58:32.939Z,3.30
